createdAt,value
2023-05-04T00:01:25.835Z,40.43
2023-05-04T00:04:10.990Z,40.98
2023-05-04T00:06:55.791Z,41.00
2023-05-04T00:09:40.933Z,41.85
2023-05-04T00:12:25.871Z,41.48
2023-05-04T00:15:10.964Z,41.44
2023-05-04T00:17:56.036Z,41.32
2023-05-04T00:20:41.060Z,41.27
2023-05-04T00:23:26.298Z,41.02
2023-05-04T00:26:11.259Z,41.43
2023-05-04T00:28:56.214Z,41.47
2023-05-04T00:31:41.174Z,40.89
2023-05-04T00:34:26.169Z,41.23
2023-05-04T00:37:11.215Z,40.36
2023-05-04T00:39:56.186Z,41.12
2023-05-04T00:42:41.177Z,40.64
2023-05-04T00:45:26.164Z,40.08
2023-05-04T00:48:11.498Z,39.57
2023-05-04T00:50:56.198Z,39.08
2023-05-04T00:53:41.248Z,39.04
2023-05-04T00:56:26.229Z,38.86
2023-05-04T00:59:11.374Z,38.72
2023-05-04T01:01:56.466Z,38.63
2023-05-04T01:04:41.422Z,39.08
2023-05-04T01:07:26.392Z,39.41
2023-05-04T01:10:11.282Z,39.73
2023-05-04T01:12:56.440Z,38.71
2023-05-04T01:15:41.187Z,38.70
2023-05-04T01:18:26.170Z,38.44
2023-05-04T01:21:11.212Z,39.29
2023-05-04T01:23:56.148Z,39.93
2023-05-04T01:26:41.224Z,39.96
2023-05-04T01:29:26.209Z,39.99
2023-05-04T01:32:11.432Z,40.28
2023-05-04T01:34:56.347Z,40.53
2023-05-04T01:37:41.433Z,40.49
2023-05-04T01:40:26.311Z,40.98
2023-05-04T01:43:11.355Z,40.97
2023-05-04T01:45:56.481Z,40.87
2023-05-04T01:48:41.369Z,40.90
2023-05-04T01:51:26.579Z,40.92
2023-05-04T01:54:11.527Z,40.32
2023-05-04T01:56:56.546Z,40.12
2023-05-04T01:59:41.350Z,40.10
2023-05-04T02:02:26.511Z,40.10
2023-05-04T02:05:11.381Z,40.31
2023-05-04T02:07:56.233Z,40.57
2023-05-04T02:10:41.082Z,40.62
2023-05-04T02:13:25.997Z,41.09
2023-05-04T02:16:11.198Z,41.31
2023-05-04T02:18:56.097Z,41.19
2023-05-04T02:21:41.214Z,41.05
2023-05-04T02:24:26.096Z,40.53
2023-05-04T02:27:11.168Z,40.73
2023-05-04T02:29:56.202Z,40.58
2023-05-04T02:32:41.209Z,41.07
2023-05-04T02:35:26.214Z,40.92
2023-05-04T02:38:11.045Z,40.59
2023-05-04T02:40:56.020Z,40.87
2023-05-04T02:43:41.024Z,41.41
2023-05-04T02:46:26.064Z,41.29
2023-05-04T02:49:11.052Z,40.97
2023-05-04T02:51:56.232Z,41.17
2023-05-04T02:54:41.236Z,40.98
2023-05-04T02:57:26.036Z,41.16
2023-05-04T03:00:11.293Z,40.90
2023-05-04T03:02:56.315Z,41.75
2023-05-04T03:05:41.390Z,41.56
2023-05-04T03:08:26.469Z,40.90
2023-05-04T03:11:11.447Z,41.61
2023-05-04T03:13:56.325Z,41.86
2023-05-04T03:16:41.464Z,42.25
2023-05-04T03:19:26.523Z,41.81
2023-05-04T03:22:11.496Z,40.96
2023-05-04T03:24:56.587Z,40.62
2023-05-04T03:27:41.573Z,39.92
2023-05-04T03:30:26.822Z,39.69
2023-05-04T03:33:11.839Z,39.83
2023-05-04T03:35:56.861Z,39.27
2023-05-04T03:38:41.784Z,38.98
2023-05-04T03:41:26.748Z,38.72
2023-05-04T03:44:11.851Z,38.32
2023-05-04T03:46:56.952Z,38.74
2023-05-04T03:49:42.125Z,38.60
2023-05-04T03:52:27.121Z,39.21
2023-05-04T03:55:12.108Z,39.72
2023-05-04T03:57:57.097Z,40.23
2023-05-04T04:00:41.926Z,39.44
2023-05-04T04:03:27.197Z,39.76
2023-05-04T04:06:12.036Z,39.38
2023-05-04T04:08:57.159Z,38.56
2023-05-04T04:11:42.124Z,37.60
2023-05-04T04:14:27.312Z,37.83
2023-05-04T04:17:12.283Z,37.74
2023-05-04T04:19:57.324Z,38.44
2023-05-04T04:22:42.309Z,38.09
2023-05-04T04:25:27.253Z,38.88
2023-05-04T04:28:12.369Z,38.32
2023-05-04T04:30:57.266Z,38.50
2023-05-04T04:33:42.362Z,39.33
2023-05-04T04:36:27.405Z,39.07
2023-05-04T04:39:12.504Z,39.08
2023-05-04T04:41:57.476Z,39.18
2023-05-04T04:44:42.647Z,38.23
2023-05-04T04:47:27.782Z,38.92
2023-05-04T04:50:12.662Z,38.69
2023-05-04T04:52:58.878Z,38.81
2023-05-04T04:55:43.681Z,38.57
2023-05-04T04:58:28.912Z,38.78
2023-05-04T05:01:13.822Z,39.19
2023-05-04T05:03:58.994Z,38.89
2023-05-04T05:06:43.999Z,38.55
2023-05-04T05:09:28.869Z,38.80
2023-05-04T05:12:13.983Z,39.78
2023-05-04T05:14:58.978Z,40.51
2023-05-04T05:17:44.031Z,40.17
2023-05-04T05:20:28.956Z,40.05
2023-05-04T05:23:14.045Z,39.74
2023-05-04T05:25:59.850Z,39.10
2023-05-04T05:28:46.447Z,39.33
2023-05-04T05:31:31.811Z,38.35
2023-05-04T05:34:16.564Z,39.38
2023-05-04T05:37:01.518Z,34.18
2023-05-04T05:39:46.340Z,28.80
2023-05-04T05:42:31.369Z,24.99
2023-05-04T05:45:16.298Z,21.27
2023-05-04T05:48:01.266Z,19.86
2023-05-04T05:50:46.230Z,17.88
2023-05-04T05:53:31.086Z,16.65
2023-05-04T05:56:16.088Z,16.50
2023-05-04T05:59:00.826Z,15.04
2023-05-04T06:01:45.686Z,13.45
2023-05-04T06:04:30.576Z,12.89
2023-05-04T06:07:15.518Z,13.46
2023-05-04T06:10:00.385Z,12.37
2023-05-04T06:12:45.256Z,11.34
2023-05-04T06:15:30.230Z,11.45
2023-05-04T06:18:15.043Z,12.00
2023-05-04T06:20:59.946Z,10.70
2023-05-04T06:23:44.880Z,10.72
2023-05-04T06:26:29.729Z,12.12
2023-05-04T06:29:14.614Z,12.47
2023-05-04T06:31:59.592Z,11.91
2023-05-04T06:34:44.404Z,11.88
2023-05-04T06:37:29.354Z,10.89
2023-05-04T06:40:14.347Z,12.03
2023-05-04T06:42:59.328Z,12.36
2023-05-04T06:45:44.437Z,13.32
2023-05-04T06:48:29.282Z,13.76
2023-05-04T06:51:14.375Z,13.00
2023-05-04T06:53:59.351Z,13.57
2023-05-04T06:56:44.323Z,12.05
2023-05-04T06:59:29.308Z,12.52
2023-05-04T07:02:14.049Z,12.74
2023-05-04T07:04:58.919Z,11.82
2023-05-04T07:07:43.807Z,12.21
2023-05-04T07:10:29.013Z,12.83
2023-05-04T07:13:13.914Z,12.40
2023-05-04T07:15:59.044Z,12.42
2023-05-04T07:18:43.866Z,11.97
2023-05-04T07:21:29.735Z,12.38
2023-05-04T07:24:14.812Z,13.38
2023-05-04T07:26:59.816Z,13.22
2023-05-04T07:29:44.757Z,13.67
2023-05-04T07:32:29.620Z,17.07
2023-05-04T07:35:14.734Z,19.45
2023-05-04T07:37:59.608Z,20.98
2023-05-04T07:40:44.793Z,23.89
2023-05-04T07:43:29.534Z,24.39
2023-05-04T07:46:14.740Z,24.83
2023-05-04T07:48:59.878Z,24.25
2023-05-04T07:51:44.751Z,25.21
2023-05-04T07:54:29.683Z,23.95
2023-05-04T07:57:14.585Z,25.00
2023-05-04T07:59:59.637Z,27.73
2023-05-04T08:02:44.681Z,27.72
2023-05-04T08:05:29.598Z,28.35
2023-05-04T08:08:14.694Z,30.15
2023-05-04T08:11:11.970Z,30.35
2023-05-04T08:14:01.500Z,28.46
2023-05-04T08:16:46.489Z,29.65
2023-05-04T08:19:31.604Z,29.61
2023-05-04T08:22:16.527Z,29.61
2023-05-04T08:25:01.642Z,32.70
2023-05-04T08:27:46.779Z,31.81
2023-05-04T08:30:31.790Z,34.41
2023-05-04T08:33:16.927Z,31.57
2023-05-04T08:36:01.822Z,35.11
2023-05-04T08:38:46.765Z,34.85
2023-05-04T08:41:31.816Z,35.11
2023-05-04T08:44:16.849Z,35.16
2023-05-04T08:47:01.857Z,32.80
2023-05-04T08:49:46.788Z,36.59
2023-05-04T08:52:31.807Z,35.01
2023-05-04T08:55:16.764Z,33.62
2023-05-04T08:58:01.928Z,34.00
2023-05-04T09:00:46.873Z,31.77
2023-05-04T09:03:32.030Z,33.38
2023-05-04T09:06:16.847Z,36.16
2023-05-04T09:09:01.924Z,32.59
2023-05-04T09:11:47.024Z,32.73
2023-05-04T09:14:31.951Z,31.51
2023-05-04T09:17:17.012Z,30.89
2023-05-04T09:20:02.071Z,31.04
2023-05-04T09:22:47.100Z,30.74
2023-05-04T09:25:31.999Z,29.95
2023-05-04T09:28:17.055Z,29.74
2023-05-04T09:31:02.051Z,30.37
2023-05-04T09:33:47.005Z,29.95
2023-05-04T09:36:32.198Z,29.58
2023-05-04T09:39:17.261Z,30.03
2023-05-04T09:42:02.349Z,33.37
2023-05-04T09:44:47.271Z,32.24
2023-05-04T09:47:32.249Z,33.45
2023-05-04T09:50:19.839Z,30.84
2023-05-04T09:53:05.582Z,33.05
2023-05-04T09:55:50.788Z,30.72
2023-05-04T09:58:35.487Z,30.64
2023-05-04T10:01:20.608Z,30.49
2023-05-04T10:04:05.440Z,31.73
2023-05-04T10:06:50.508Z,32.06
2023-05-04T10:09:35.719Z,33.87
2023-05-04T10:12:20.706Z,31.50
2023-05-04T10:15:05.976Z,35.22
2023-05-04T10:17:51.203Z,32.38
2023-05-04T10:20:36.294Z,33.01
2023-05-04T10:23:23.671Z,31.78
2023-05-04T10:26:08.725Z,32.35
2023-05-04T10:28:53.780Z,30.27
2023-05-04T10:31:38.760Z,31.66
2023-05-04T10:34:23.745Z,29.45
2023-05-04T10:37:08.809Z,32.14
2023-05-04T10:39:53.937Z,30.15
2023-05-04T10:42:38.867Z,29.06
2023-05-04T10:45:23.931Z,28.59
2023-05-04T10:48:08.869Z,29.84
2023-05-04T10:50:53.874Z,29.61
2023-05-04T10:53:39.068Z,28.94
2023-05-04T10:56:24.052Z,24.98
2023-05-04T10:59:09.214Z,27.73
2023-05-04T11:01:54.128Z,26.89
2023-05-04T11:04:39.199Z,27.84
2023-05-04T11:07:24.188Z,29.15
2023-05-04T11:10:09.229Z,28.34
2023-05-04T11:12:54.257Z,30.11
2023-05-04T11:15:39.136Z,30.08
2023-05-04T11:18:24.343Z,28.31
2023-05-04T11:21:09.241Z,29.15
2023-05-04T11:23:54.289Z,28.80
2023-05-04T11:26:39.320Z,28.76
2023-05-04T11:29:24.386Z,25.46
2023-05-04T11:32:09.470Z,25.53
2023-05-04T11:34:54.527Z,28.40
2023-05-04T11:37:39.539Z,26.96
2023-05-04T11:40:24.499Z,27.19
2023-05-04T11:43:09.404Z,26.93
2023-05-04T11:45:54.560Z,26.45
2023-05-04T11:48:39.689Z,27.08
2023-05-04T11:51:24.769Z,27.65
2023-05-04T11:54:09.864Z,27.12
2023-05-04T11:56:54.927Z,27.79
2023-05-04T11:59:39.868Z,28.58
2023-05-04T12:02:25.035Z,26.76
2023-05-04T12:05:10.099Z,27.61
2023-05-04T12:07:55.107Z,29.51
2023-05-04T12:10:40.096Z,27.77
2023-05-04T12:13:25.155Z,27.88
2023-05-04T12:16:10.271Z,27.34
2023-05-04T12:18:55.137Z,28.01
2023-05-04T12:21:40.176Z,25.89
2023-05-04T12:24:25.175Z,26.40
2023-05-04T12:27:10.358Z,28.32
2023-05-04T12:29:55.261Z,27.59
2023-05-04T12:32:40.286Z,28.14
2023-05-04T12:35:25.113Z,26.52
2023-05-04T12:38:09.984Z,27.65
2023-05-04T12:40:55.052Z,27.11
2023-05-04T12:43:39.939Z,26.67
2023-05-04T12:46:25.034Z,26.51
2023-05-04T12:49:09.933Z,24.79
2023-05-04T12:51:54.975Z,25.74
2023-05-04T12:54:39.882Z,26.42
2023-05-04T12:57:24.896Z,26.06
2023-05-04T13:00:09.753Z,26.65
2023-05-04T13:02:54.796Z,26.38
2023-05-04T13:05:39.857Z,26.26
2023-05-04T13:08:24.824Z,25.46
2023-05-04T13:11:09.896Z,26.92
2023-05-04T13:13:54.761Z,27.42
2023-05-04T13:16:39.733Z,27.71
2023-05-04T13:19:24.834Z,28.52
2023-05-04T13:22:09.905Z,28.54
2023-05-04T13:24:54.818Z,27.93
2023-05-04T13:27:39.810Z,28.94
2023-05-04T13:30:24.787Z,30.17
2023-05-04T13:33:20.682Z,30.35
2023-05-04T13:36:12.522Z,30.29
2023-05-04T13:38:57.489Z,31.66
2023-05-04T13:41:42.367Z,30.16
2023-05-04T13:44:27.634Z,30.77
2023-05-04T13:47:12.577Z,31.57
2023-05-04T13:49:57.739Z,31.05
2023-05-04T13:52:42.783Z,31.55
2023-05-04T13:55:27.841Z,29.76
2023-05-04T13:58:12.836Z,29.76
2023-05-04T14:00:58.002Z,32.28
2023-05-04T14:03:42.840Z,31.66
2023-05-04T14:06:27.800Z,30.18
2023-05-04T14:09:13.083Z,29.02
2023-05-04T14:11:57.982Z,29.04
2023-05-04T14:14:43.010Z,29.69
2023-05-04T14:17:27.865Z,28.83
2023-05-04T14:20:12.876Z,28.63
2023-05-04T14:22:57.833Z,29.36
2023-05-04T14:25:42.936Z,30.20
2023-05-04T14:28:28.105Z,30.60
2023-05-04T14:31:13.062Z,29.21
2023-05-04T14:33:58.111Z,30.35
2023-05-04T14:36:43.030Z,28.34
2023-05-04T14:39:27.965Z,29.85
2023-05-04T14:42:12.801Z,28.66
2023-05-04T14:44:57.889Z,27.49
2023-05-04T14:47:42.926Z,29.71
2023-05-04T14:50:27.898Z,30.66
2023-05-04T14:53:12.572Z,28.45
2023-05-04T14:55:57.500Z,28.61
2023-05-04T14:58:42.530Z,29.44
2023-05-04T15:01:27.506Z,30.36
2023-05-04T15:04:12.568Z,28.99
2023-05-04T15:06:57.432Z,29.19
2023-05-04T15:09:42.479Z,28.69
2023-05-04T15:12:27.501Z,28.91
2023-05-04T15:15:12.435Z,26.72
2023-05-04T15:17:57.636Z,28.79
2023-05-04T15:20:42.589Z,26.86
2023-05-04T15:23:27.830Z,27.64
2023-05-04T15:26:12.744Z,28.81
2023-05-04T15:28:57.876Z,26.74
2023-05-04T15:31:42.881Z,27.30
2023-05-04T15:34:27.755Z,27.78
2023-05-04T15:37:12.766Z,28.36
2023-05-04T15:39:59.111Z,29.14
2023-05-04T15:42:46.446Z,29.32
2023-05-04T15:45:31.239Z,30.06
2023-05-04T15:48:16.261Z,28.77
2023-05-04T15:51:01.377Z,28.39
2023-05-04T15:53:46.339Z,28.60
2023-05-04T15:56:31.544Z,28.62
2023-05-04T15:59:16.543Z,27.98
2023-05-04T16:02:01.567Z,26.99
2023-05-04T16:04:46.587Z,27.18
2023-05-04T16:07:31.390Z,24.94
2023-05-04T16:10:16.477Z,22.83
2023-05-04T16:13:01.471Z,24.93
2023-05-04T16:15:46.530Z,23.84
2023-05-04T16:18:31.394Z,24.38
2023-05-04T16:21:16.385Z,24.73
2023-05-04T16:24:01.315Z,25.29
2023-05-04T16:26:46.318Z,24.19
2023-05-04T16:29:31.265Z,24.39
2023-05-04T16:32:16.649Z,25.73
2023-05-04T16:35:01.253Z,26.45
2023-05-04T16:37:46.129Z,23.46
2023-05-04T16:40:31.191Z,24.06
2023-05-04T16:43:15.950Z,23.73
2023-05-04T16:46:00.999Z,23.84
2023-05-04T16:48:45.847Z,23.86
2023-05-04T16:51:30.867Z,24.20
2023-05-04T16:54:15.735Z,24.64
2023-05-04T16:57:00.731Z,24.14
2023-05-04T16:59:45.675Z,25.11
2023-05-04T17:02:30.795Z,25.63
2023-05-04T17:05:15.798Z,24.49
2023-05-04T17:08:00.822Z,25.79
2023-05-04T17:10:45.886Z,25.87
2023-05-04T17:13:30.710Z,25.62
2023-05-04T17:16:15.863Z,26.64
2023-05-04T17:19:00.813Z,28.45
2023-05-04T17:21:45.672Z,26.60
2023-05-04T17:24:30.592Z,26.71
2023-05-04T17:27:15.579Z,26.93
2023-05-04T17:30:00.607Z,26.97
2023-05-04T17:32:45.476Z,27.81
2023-05-04T17:35:30.531Z,28.19
2023-05-04T17:38:15.516Z,27.62
2023-05-04T17:41:00.550Z,29.64
2023-05-04T17:43:45.497Z,29.83
2023-05-04T17:46:30.538Z,30.41
2023-05-04T17:49:15.553Z,31.65
2023-05-04T17:52:00.549Z,28.88
2023-05-04T17:54:45.850Z,29.46
2023-05-04T17:57:30.475Z,29.89
2023-05-04T18:00:15.541Z,29.90
2023-05-04T18:03:00.444Z,31.78
2023-05-04T18:05:45.333Z,31.74
2023-05-04T18:08:30.358Z,31.59
2023-05-04T18:11:15.264Z,29.11
2023-05-04T18:14:00.510Z,31.43
2023-05-04T18:16:45.380Z,31.60
2023-05-04T18:19:30.520Z,31.12
2023-05-04T18:22:15.555Z,33.00
2023-05-04T18:25:00.563Z,33.01
2023-05-04T18:27:45.438Z,32.90
2023-05-04T18:30:30.499Z,30.48
2023-05-04T18:33:15.461Z,30.16
2023-05-04T18:36:00.436Z,30.62
2023-05-04T18:38:45.441Z,31.88
2023-05-04T18:41:30.460Z,32.93
2023-05-04T18:44:15.618Z,32.46
2023-05-04T18:47:00.563Z,35.99
2023-05-04T18:49:45.607Z,40.44
2023-05-04T18:52:30.648Z,32.97
2023-05-04T18:55:15.711Z,32.71
2023-05-04T18:58:00.872Z,34.54
2023-05-04T19:00:45.768Z,38.71
2023-05-04T19:03:30.913Z,34.22
2023-05-04T19:06:15.786Z,33.63
2023-05-04T19:09:00.869Z,33.79
2023-05-04T19:11:45.892Z,33.55
2023-05-04T19:14:30.885Z,34.14
2023-05-04T19:17:15.973Z,35.67
2023-05-04T19:20:00.868Z,34.06
2023-05-04T19:22:45.841Z,36.72
2023-05-04T19:25:34.805Z,40.04
2023-05-04T19:28:20.300Z,40.90
2023-05-04T19:31:05.374Z,35.89
2023-05-04T19:33:50.238Z,36.86
2023-05-04T19:36:35.480Z,33.77
2023-05-04T19:39:20.371Z,34.28
2023-05-04T19:42:05.369Z,40.12
2023-05-04T19:44:50.322Z,35.72
2023-05-04T19:47:35.419Z,36.08
2023-05-04T19:50:20.337Z,36.71
2023-05-04T19:53:05.352Z,35.07
2023-05-04T19:55:50.460Z,36.66
2023-05-04T19:58:35.330Z,36.38
2023-05-04T20:01:20.440Z,37.91
2023-05-04T20:04:05.238Z,36.00
2023-05-04T20:06:50.169Z,37.71
2023-05-04T20:09:35.083Z,36.48
2023-05-04T20:12:20.033Z,33.94
2023-05-04T20:15:05.084Z,32.16
2023-05-04T20:17:50.071Z,32.83
2023-05-04T20:20:35.329Z,32.64
2023-05-04T20:23:19.981Z,34.00
2023-05-04T20:26:06.088Z,32.14
2023-05-04T20:28:51.039Z,33.14
2023-05-04T20:31:36.163Z,35.86
2023-05-04T20:34:21.213Z,36.21
2023-05-04T20:37:06.127Z,34.59
2023-05-04T20:39:51.128Z,35.63
2023-05-04T20:42:36.165Z,35.24
2023-05-04T20:45:21.208Z,35.69
2023-05-04T20:48:06.234Z,34.66
2023-05-04T20:50:54.945Z,34.73
2023-05-04T20:53:44.923Z,34.25
2023-05-04T20:56:30.116Z,34.78
2023-05-04T20:59:15.098Z,35.05
2023-05-04T21:02:00.174Z,36.04
2023-05-04T21:04:45.187Z,35.05
2023-05-04T21:07:30.261Z,35.64
2023-05-04T21:10:15.147Z,35.18
2023-05-04T21:13:00.254Z,34.91
2023-05-04T21:15:45.122Z,35.61
2023-05-04T21:18:30.136Z,36.92
2023-05-04T21:21:15.159Z,36.48
2023-05-04T21:24:00.165Z,36.94
2023-05-04T21:26:45.197Z,36.07
2023-05-04T21:29:30.272Z,36.53
2023-05-04T21:32:15.299Z,36.29
2023-05-04T21:35:00.278Z,36.24
2023-05-04T21:37:45.276Z,36.45
2023-05-04T21:40:30.521Z,36.07
2023-05-04T21:43:15.516Z,35.93
2023-05-04T21:46:00.629Z,36.39
2023-05-04T21:48:45.446Z,36.75
2023-05-04T21:51:30.469Z,36.93
2023-05-04T21:54:15.438Z,36.79
2023-05-04T21:57:00.719Z,36.84
2023-05-04T21:59:46.367Z,37.09
2023-05-04T22:02:32.210Z,36.89
2023-05-04T22:05:17.214Z,37.20
2023-05-04T22:08:02.073Z,37.97
2023-05-04T22:10:47.130Z,38.10
2023-05-04T22:13:32.017Z,37.55
2023-05-04T22:16:17.053Z,38.63
2023-05-04T22:19:02.090Z,37.82
2023-05-04T22:21:46.904Z,38.70
2023-05-04T22:24:31.977Z,38.74
2023-05-04T22:27:16.863Z,39.06
2023-05-04T22:30:01.999Z,39.35
2023-05-04T22:32:47.155Z,40.04
2023-05-04T22:35:32.136Z,40.11
2023-05-04T22:38:17.001Z,40.32
2023-05-04T22:41:02.047Z,40.28
2023-05-04T22:43:47.085Z,40.22
2023-05-04T22:46:32.062Z,41.02
2023-05-04T22:49:16.999Z,41.15
2023-05-04T22:52:01.880Z,42.03
2023-05-04T22:54:47.035Z,41.20
2023-05-04T22:57:31.827Z,41.39
2023-05-04T23:00:16.837Z,41.74
2023-05-04T23:03:01.709Z,42.71
2023-05-04T23:05:46.651Z,42.90
2023-05-04T23:08:31.711Z,41.98
2023-05-04T23:11:16.791Z,41.37
2023-05-04T23:14:01.966Z,41.33
2023-05-04T23:16:46.930Z,41.32
2023-05-04T23:19:32.033Z,41.99
2023-05-04T23:22:17.334Z,40.76
2023-05-04T23:25:02.125Z,40.97
2023-05-04T23:27:47.101Z,41.91
2023-05-04T23:30:32.063Z,41.81
2023-05-04T23:33:17.217Z,40.62
2023-05-04T23:36:02.149Z,41.68
2023-05-04T23:38:47.304Z,41.99
2023-05-04T23:41:32.200Z,41.59
2023-05-04T23:44:17.222Z,40.92
2023-05-04T23:47:02.105Z,40.61
2023-05-04T23:49:47.083Z,40.58
2023-05-04T23:52:32.110Z,40.82
2023-05-04T23:55:17.051Z,41.39
2023-05-04T23:58:02.160Z,41.05
